Цаган-Аман

Карта отелей и гостиниц, располагающихся рядом с аэропортом Цаган-Аман :

Цаган-Аман Республика Калмыкия 47° 32' 46.68" N, 46° 42' 36.36" E
Код аэродрома ИКАО
ZD7X
Код аэродрома RU
ЗД7Ь
Координаты
N47.54630° E046.71010°
Превышение над уровнем моря
10
Основная полоса
11/29
Курс магнитный
108/288
Длина основной ВПП
745
Ширина основной ВПП
200
Покрытие основной ВПП
Нетвёрдое (грунт)
Освещение ВПП
Нет
Тип: 
Аэродром
Класс аэродрома: 
Принадлежность: 
ГА
Статус: 
Недействующий
Сайт: 
E-mail аэродрома: 
Страна: 
Россия
Регион: 
Республика Калмыкия
Город: 
Дополнительная информация: 
Бывший аэродром МВЛ-2 СКУ ГА.

Найти трансфер

С помощью этой формы Вы можете найти трансфер из аэропорта Цаган-Аман в город, аэропорт или вокзал:

Карта места

Javascript is required to view this map.

Погода в аэропортах:

Авиационная погода в Ботсфьорде

Регион: 
Погода METAR: 
ENBS 161920Z 27037G47KT 9999 VCSH SCT020 SCT041 03/01 Q1023
Время наблюдения
2021-04-16T19:20:00Z
Температура C
3.0
Точка росы
1.0
Направление ветра
270
Скорость ветра (узлы)
37
Метео видимость
6.21
Явления погоды
VCSH
Условия полета
VFR

Авиационная погода в Ставрополе

Регион: 
Погода METAR: 
URMT 171630Z 00000MPS 9999 -RA SCT040 09/06 Q1021 R25/290250 NOSIG RMK QFE727
Время наблюдения
2021-04-17T16:30:00Z
Температура C
9.0
Точка росы
6.0
Направление ветра
0
Скорость ветра (узлы)
0
Метео видимость
6.21
Явления погоды
-RA
Условия полета
VFR
Аэропорт подробнее: 

Авиационная погода в аэропорту Новый

Регион: 
Погода METAR: 
UHHH 171630Z 19001MPS 0050 R23R/P2000U PRFG VV002 00/00 Q1012 R23R/090060 NOSIG RMK QBB060 QFE753/1004
Время наблюдения
2021-04-17T16:30:00Z
Температура C
0.0
Точка росы
0.0
Направление ветра
190
Скорость ветра (узлы)
2
Метео видимость
0.03
Явления погоды
PRFG
Условия полета
LIFR
Аэропорт подробнее: 

Авиационная погода в Полярном

Регион: 
Погода METAR: 
UERP 171700Z 30006G12MPS 9999 -SHSN DRSN BKN017CB OVC100 M12/M14 Q0995 NOSIG RMK QFE702
Время наблюдения
2021-04-17T17:00:00Z
Температура C
-12.0
Точка росы
-14.0
Направление ветра
300
Скорость ветра (узлы)
12
Метео видимость
6.21
Явления погоды
-SHSN DRSN
Условия полета
MVFR
Аэропорт подробнее: